Time;durP1;ratioP1;P1;durP2;ratioP2;P2;SDS_P1;SDS_P2;PMS_P1;PMS_P2;Temp;Humidity;BMP_temperature;BMP_pressure;BME280_temperature;BME280_humidity;BME280_pressure;Samples;Min_cycle;Max_cycle;Signal;HPM_P1;HPM_P2
2023/09/18 00:02:03;;;;;;;0.50;0.40;;;19.70;99.90;;;;;;5080159;28;20443;-81
2023/09/18 00:04:30;;;;;;;0.50;0.33;;;19.70;99.90;;;;;;5071381;28;20527;-82
2023/09/18 00:06:56;;;;;;;0.50;0.30;;;19.60;99.90;;;;;;5079611;28;20437;-81
2023/09/18 00:09:23;;;;;;;0.50;0.40;;;19.70;99.90;;;;;;5079332;28;20442;-81
2023/09/18 00:11:52;;;;;;;0.50;0.30;;;19.70;99.90;;;;;;5079904;28;20440;-81
2023/09/18 00:14:19;;;;;;;0.50;0.33;;;19.70;99.90;;;;;;5079100;28;20486;-80
2023/09/18 00:16:46;;;;;;;0.50;0.30;;;19.70;99.90;;;;;;5079496;28;20474;-83
2023/09/18 00:19:13;;;;;;;0.50;0.30;;;19.70;99.90;;;;;;5079044;28;20479;-80
2023/09/18 00:21:40;;;;;;;0.50;0.30;;;19.60;99.90;;;;;;5079379;28;20438;-81
2023/09/18 00:24:08;;;;;;;0.50;0.30;;;19.70;99.90;;;;;;5079183;28;20528;-81
2023/09/18 00:26:34;;;;;;;0.50;0.30;;;19.70;99.90;;;;;;5079764;28;20446;-82
2023/09/18 00:29:03;;;;;;;0.50;0.30;;;19.70;99.90;;;;;;5079169;28;20436;-81
2023/09/18 00:31:29;;;;;;;0.50;0.40;;;19.60;99.90;;;;;;5078518;28;20448;-79
2023/09/18 00:33:56;;;;;;;0.50;0.30;;;19.60;99.90;;;;;;5079129;28;20990;-82
2023/09/18 00:36:23;;;;;;;0.50;0.30;;;19.60;99.90;;;;;;5078734;28;20940;-80
2023/09/18 00:38:50;;;;;;;0.50;0.30;;;19.60;99.90;;;;;;5079565;28;20542;-82
2023/09/18 00:41:16;;;;;;;0.50;0.30;;;19.60;99.90;;;;;;5079524;28;20450;-80
2023/09/18 00:43:43;;;;;;;0.50;0.40;;;19.60;99.90;;;;;;5078976;28;20529;-81
2023/09/18 00:46:11;;;;;;;0.50;0.40;;;19.70;99.90;;;;;;5079337;28;20440;-81
2023/09/18 00:48:38;;;;;;;0.50;0.40;;;19.70;99.90;;;;;;5078865;28;20530;-81
2023/09/18 00:51:05;;;;;;;0.50;0.40;;;19.60;99.90;;;;;;5078862;28;20520;-81
2023/09/18 00:53:32;;;;;;;0.50;0.30;;;19.60;99.90;;;;;;5078661;28;20448;-80
2023/09/18 00:56:01;;;;;;;0.50;0.30;;;19.60;99.90;;;;;;5078692;28;20913;-80
2023/09/18 00:58:28;;;;;;;0.50;0.30;;;19.60;99.90;;;;;;5078407;28;20526;-80
2023/09/18 01:00:55;;;;;;;0.50;0.30;;;19.70;99.90;;;;;;5078569;28;20551;-78
2023/09/18 01:03:25;;;;;;;0.50;0.30;;;19.60;99.90;;;;;;5078319;28;20448;-80
2023/09/18 01:05:52;;;;;;;0.50;0.30;;;19.60;99.90;;;;;;5078785;28;20441;-80
2023/09/18 01:08:18;;;;;;;0.50;0.30;;;19.60;99.90;;;;;;5077906;28;20435;-81
2023/09/18 01:10:55;;;;;;;0.50;0.30;;;19.60;99.90;;;;;;5078427;28;20439;-82
2023/09/18 01:13:28;;;;;;;0.50;0.30;;;19.60;99.90;;;;;;5078421;28;20436;-80
2023/09/18 01:16:02;;;;;;;0.50;0.30;;;19.60;99.90;;;;;;5078315;28;20454;-79
2023/09/18 01:18:30;;;;;;;0.50;0.40;;;19.50;99.90;;;;;;5077928;28;20507;-81
2023/09/18 01:20:57;;;;;;;0.50;0.40;;;19.50;99.90;;;;;;5078077;28;20447;-81
2023/09/18 01:23:25;;;;;;;0.50;0.30;;;19.50;99.90;;;;;;5076119;28;20440;-80
2023/09/18 01:25:52;;;;;;;0.50;0.30;;;19.50;99.90;;;;;;5074222;28;20444;-80
2023/09/18 01:28:19;;;;;;;0.50;0.30;;;19.50;99.90;;;;;;5073635;28;20451;-80
2023/09/18 01:30:46;;;;;;;0.50;0.30;;;19.50;99.90;;;;;;5074306;28;20443;-80
2023/09/18 01:33:14;;;;;;;0.50;0.30;;;19.50;99.90;;;;;;5074162;28;20826;-79
2023/09/18 01:35:42;;;;;;;0.50;0.30;;;19.50;99.90;;;;;;5074420;28;20471;-81
2023/09/18 01:38:11;;;;;;;0.50;0.30;;;19.50;99.90;;;;;;5075082;28;20508;-80
2023/09/18 01:40:39;;;;;;;0.50;0.30;;;19.50;99.90;;;;;;5073314;28;20512;-79
2023/09/18 01:43:07;;;;;;;0.50;0.30;;;19.50;99.90;;;;;;5073790;28;20445;-81
2023/09/18 01:45:35;;;;;;;0.50;0.30;;;19.50;99.90;;;;;;5073510;28;20467;-80
2023/09/18 01:48:04;;;;;;;0.50;0.40;;;19.50;99.90;;;;;;5073873;28;20436;-79
2023/09/18 01:50:31;;;;;;;0.50;0.30;;;19.50;99.90;;;;;;5073401;28;20501;-81
2023/09/18 01:52:59;;;;;;;0.50;0.30;;;19.50;99.90;;;;;;5074207;28;20443;-80
2023/09/18 01:55:28;;;;;;;0.50;0.40;;;19.50;99.90;;;;;;5072939;28;20471;-80
2023/09/18 01:57:56;;;;;;;0.50;0.30;;;19.40;99.90;;;;;;5074511;28;20479;-79
2023/09/18 02:00:23;;;;;;;0.50;0.40;;;19.40;99.90;;;;;;5073896;28;20483;-80
2023/09/18 02:02:49;;;;;;;0.50;0.30;;;19.50;99.90;;;;;;5073383;28;20528;-80
2023/09/18 02:05:16;;;;;;;0.50;0.30;;;19.50;99.90;;;;;;5073631;28;20464;-78
2023/09/18 02:07:43;;;;;;;0.50;0.30;;;19.50;99.90;;;;;;5073235;28;20448;-80
2023/09/18 02:10:12;;;;;;;0.50;0.30;;;19.50;99.90;;;;;;5073810;28;20442;-80
2023/09/18 02:12:39;;;;;;;0.50;0.30;;;19.50;99.90;;;;;;5073939;28;20494;-79
2023/09/18 02:15:10;;;;;;;0.50;0.30;;;19.50;99.90;;;;;;5072931;28;20473;-80
2023/09/18 02:17:37;;;;;;;0.50;0.30;;;19.50;99.90;;;;;;5073737;28;20450;-80
2023/09/18 02:20:11;;;;;;;0.50;0.30;;;19.50;99.90;;;;;;5074539;28;20472;-79
2023/09/18 02:22:39;;;;;;;0.50;0.30;;;19.40;99.90;;;;;;5078029;28;20498;-81
2023/09/18 02:25:08;;;;;;;0.50;0.30;;;19.50;99.90;;;;;;5077448;28;20532;-80
2023/09/18 02:27:34;;;;;;;0.50;0.40;;;19.50;99.90;;;;;;5076961;28;20441;-81
2023/09/18 02:30:01;;;;;;;0.50;0.30;;;19.50;99.90;;;;;;5076405;28;21337;-81
2023/09/18 02:32:29;;;;;;;0.50;0.30;;;19.50;99.90;;;;;;5076171;28;20448;-80
2023/09/18 02:34:56;;;;;;;0.50;0.30;;;19.60;99.90;;;;;;5076472;28;20490;-80
2023/09/18 02:37:23;;;;;;;0.50;0.30;;;19.70;99.90;;;;;;5076199;28;20843;-80
2023/09/18 02:39:50;;;;;;;0.50;0.30;;;19.60;99.90;;;;;;5076484;28;20469;-81
2023/09/18 02:42:17;;;;;;;0.50;0.30;;;19.70;99.90;;;;;;5073305;28;20450;-80
2023/09/18 02:44:44;;;;;;;0.50;0.30;;;19.70;99.90;;;;;;5075965;28;20492;-81
2023/09/18 02:47:10;;;;;;;0.50;0.30;;;19.80;99.90;;;;;;5076610;28;20441;-80
2023/09/18 02:49:39;;;;;;;0.50;0.40;;;19.80;99.90;;;;;;5076560;28;20447;-80
2023/09/18 02:52:06;;;;;;;0.50;0.40;;;19.80;99.90;;;;;;5080103;28;20459;-81
2023/09/18 02:54:33;;;;;;;0.50;0.30;;;19.80;99.90;;;;;;5079831;28;20986;-80
2023/09/18 02:56:59;;;;;;;0.50;0.30;;;19.80;99.90;;;;;;5081165;28;20537;-81
2023/09/18 02:59:26;;;;;;;0.50;0.40;;;19.80;99.90;;;;;;5080149;28;20571;-79
2023/09/18 03:01:53;;;;;;;0.50;0.30;;;19.80;99.90;;;;;;5080589;28;20441;-80
2023/09/18 03:04:20;;;;;;;0.50;0.30;;;19.80;99.90;;;;;;5080068;28;20463;-79
2023/09/18 03:06:49;;;;;;;0.50;0.30;;;19.80;99.90;;;;;;5080465;28;20912;-80
2023/09/18 03:09:16;;;;;;;0.50;0.30;;;19.80;99.90;;;;;;5080677;28;20437;-82
2023/09/18 03:11:43;;;;;;;0.50;0.30;;;19.90;99.90;;;;;;5080161;28;20430;-81
2023/09/18 03:14:10;;;;;;;0.50;0.30;;;19.80;99.90;;;;;;5079766;28;20464;-81
2023/09/18 03:16:37;;;;;;;0.50;0.30;;;19.90;99.90;;;;;;5079642;28;20447;-81
2023/09/18 03:19:04;;;;;;;0.50;0.40;;;19.90;99.90;;;;;;5077246;28;20567;-79
2023/09/18 03:21:33;;;;;;;0.50;0.40;;;19.90;99.90;;;;;;5076331;28;20442;-80
2023/09/18 03:24:01;;;;;;;0.50;0.30;;;20.00;99.90;;;;;;5078035;28;20551;-81
2023/09/18 03:26:28;;;;;;;0.50;0.40;;;20.10;99.90;;;;;;5077820;28;20789;-80
2023/09/18 03:28:54;;;;;;;0.50;0.30;;;20.20;99.90;;;;;;5077789;28;20963;-80
2023/09/18 03:31:21;;;;;;;0.50;0.30;;;20.40;99.90;;;;;;5078371;28;20497;-81
2023/09/18 03:33:48;;;;;;;0.50;0.40;;;20.60;99.90;;;;;;5077895;28;20464;-81
2023/09/18 03:36:15;;;;;;;0.50;0.37;;;20.70;99.90;;;;;;5077353;28;20439;-81
2023/09/18 03:38:41;;;;;;;0.60;0.50;;;20.80;99.90;;;;;;5077559;28;20447;-81
2023/09/18 03:41:09;;;;;;;0.73;0.73;;;20.90;99.90;;;;;;5077866;28;20484;-80
2023/09/18 03:43:36;;;;;;;1.33;1.07;;;21.10;99.90;;;;;;5076819;28;20939;-80
2023/09/18 03:46:06;;;;;;;0.50;0.30;;;21.20;99.90;;;;;;5077699;28;20960;-80
2023/09/18 03:48:37;;;;;;;0.50;0.30;;;21.20;99.90;;;;;;5078079;28;20438;-81
2023/09/18 03:51:04;;;;;;;0.70;0.70;;;21.30;99.90;;;;;;5078182;28;20440;-82
2023/09/18 03:53:31;;;;;;;0.50;0.30;;;21.40;99.90;;;;;;5077011;28;20441;-80
2023/09/18 03:55:57;;;;;;;0.50;0.30;;;21.40;99.90;;;;;;5077340;28;20449;-81
2023/09/18 03:58:26;;;;;;;0.50;0.30;;;21.40;99.90;;;;;;5077212;28;20440;-81
2023/09/18 04:00:53;;;;;;;0.50;0.40;;;21.40;99.90;;;;;;5068960;28;20480;-81
2023/09/18 04:03:20;;;;;;;0.50;0.30;;;21.40;99.90;;;;;;5076148;28;20519;-79
2023/09/18 04:05:47;;;;;;;0.80;0.80;;;21.40;99.90;;;;;;5076443;28;20533;-79
2023/09/18 04:08:13;;;;;;;0.50;0.30;;;21.40;99.90;;;;;;5076446;28;20449;-79
2023/09/18 04:10:40;;;;;;;0.50;0.30;;;21.50;99.90;;;;;;5077050;28;20539;-80
2023/09/18 04:13:08;;;;;;;0.90;0.53;;;21.40;99.90;;;;;;5077333;28;20451;-81
2023/09/18 04:15:37;;;;;;;0.50;0.40;;;21.50;99.90;;;;;;5076976;28;21041;-80
2023/09/18 04:18:05;;;;;;;0.50;0.40;;;21.50;99.90;;;;;;5077739;28;20520;-81
2023/09/18 04:20:32;;;;;;;0.63;0.57;;;21.60;99.90;;;;;;5076968;28;20473;-80
2023/09/18 04:23:18;;;;;;;1.10;0.97;;;21.50;99.90;;;;;;5077299;28;20468;-80
2023/09/18 04:25:45;;;;;;;0.50;0.40;;;21.50;99.90;;;;;;5076381;28;20472;-80
2023/09/18 04:28:12;;;;;;;0.90;0.73;;;21.50;99.90;;;;;;5077503;28;20552;-81
2023/09/18 04:30:40;;;;;;;0.70;0.50;;;21.50;99.90;;;;;;5077131;28;20442;-81
2023/09/18 04:33:07;;;;;;;0.50;0.37;;;21.50;99.90;;;;;;5076266;28;20441;-81
2023/09/18 04:35:34;;;;;;;0.60;0.40;;;21.50;99.90;;;;;;5075988;28;20465;-80
2023/09/18 04:38:01;;;;;;;0.50;0.30;;;21.40;99.90;;;;;;5076714;28;20441;-81
2023/09/18 04:40:31;;;;;;;0.50;0.40;;;21.40;99.90;;;;;;5077793;28;20478;-80
2023/09/18 04:42:58;;;;;;;0.50;0.40;;;21.40;99.90;;;;;;5076223;28;20437;-81
2023/09/18 04:45:25;;;;;;;0.50;0.30;;;21.40;99.90;;;;;;5075550;28;20467;-80
2023/09/18 04:47:54;;;;;;;0.50;0.30;;;21.30;99.90;;;;;;5076137;28;20434;-81
2023/09/18 04:50:21;;;;;;;0.50;0.30;;;21.20;99.90;;;;;;5100064;22;20440;-79
2023/09/18 04:52:47;;;;;;;17.80;16.20;;;21.10;99.90;;;;;;5052022;28;20465;-82
2023/09/18 04:55:15;;;;;;;0.50;0.33;;;21.00;99.90;;;;;;5066655;28;20473;-81
2023/09/18 04:57:42;;;;;;;1.20;0.60;;;20.90;99.90;;;;;;5066730;28;20439;-82
2023/09/18 05:00:13;;;;;;;0.50;0.30;;;20.80;99.90;;;;;;5063216;28;20476;-82
2023/09/18 05:02:41;;;;;;;0.50;0.40;;;20.80;99.90;;;;;;5049338;28;20584;-81
2023/09/18 05:05:10;;;;;;;0.50;0.30;;;20.70;99.90;;;;;;5052508;28;20436;-82
2023/09/18 05:07:36;;;;;;;0.60;0.50;;;20.70;99.90;;;;;;5046142;28;20530;-81
2023/09/18 05:10:05;;;;;;;1.70;1.60;;;20.70;99.90;;;;;;5056812;28;20453;-82
2023/09/18 05:12:32;;;;;;;0.50;0.40;;;20.70;99.90;;;;;;5048558;28;20460;-82
2023/09/18 05:14:59;;;;;;;0.70;0.60;;;20.70;99.90;;;;;;5047980;28;20955;-82
2023/09/18 05:17:42;;;;;;;0.50;0.40;;;20.70;99.90;;;;;;5047819;28;20499;-78
2023/09/18 05:20:13;;;;;;;0.50;0.40;;;20.70;99.90;;;;;;5038994;28;20477;-80
2023/09/18 05:22:40;;;;;;;0.50;0.40;;;20.60;99.90;;;;;;5038388;28;20438;-81
2023/09/18 05:25:07;;;;;;;0.50;0.40;;;20.60;99.90;;;;;;5035510;28;20532;-80
2023/09/18 05:27:34;;;;;;;0.50;0.40;;;20.50;99.90;;;;;;5035451;28;20456;-79
2023/09/18 05:30:01;;;;;;;3.43;1.00;;;20.50;99.90;;;;;;5030879;28;20444;-80
2023/09/18 05:32:28;;;;;;;0.50;0.30;;;20.40;99.90;;;;;;5047978;28;20476;-81
2023/09/18 05:34:54;;;;;;;0.50;0.40;;;20.40;99.90;;;;;;5045808;28;20815;-81
2023/09/18 05:37:22;;;;;;;0.60;0.60;;;20.40;99.90;;;;;;5055896;28;20517;-80
2023/09/18 05:39:49;;;;;;;1.23;1.13;;;20.40;99.90;;;;;;5039019;28;20996;-81
2023/09/18 05:42:16;;;;;;;0.50;0.40;;;20.40;99.90;;;;;;5042499;28;20457;-79
2023/09/18 05:44:43;;;;;;;12.83;11.60;;;20.40;99.90;;;;;;5043862;28;20445;-78
2023/09/18 05:47:11;;;;;;;0.67;0.47;;;20.40;99.90;;;;;;5050662;28;20817;-81
2023/09/18 05:49:37;;;;;;;0.50;0.30;;;20.40;99.90;;;;;;5051705;28;20942;-80
2023/09/18 05:52:04;;;;;;;0.93;0.63;;;20.40;99.90;;;;;;5036088;28;20881;-81
2023/09/18 05:54:33;;;;;;;0.50;0.40;;;20.40;99.90;;;;;;5051268;28;20447;-81
2023/09/18 05:57:00;;;;;;;0.50;0.30;;;20.40;99.90;;;;;;5052713;28;20445;-81
2023/09/18 05:59:28;;;;;;;0.50;0.40;;;20.40;99.90;;;;;;5043544;28;20788;-78
2023/09/18 06:01:55;;;;;;;0.50;0.30;;;20.40;99.90;;;;;;5045340;28;20471;-81
2023/09/18 06:04:23;;;;;;;0.50;0.33;;;20.40;99.90;;;;;;5040627;28;20446;-79
2023/09/18 06:06:51;;;;;;;0.50;0.40;;;20.40;99.90;;;;;;5042745;28;20458;-81
2023/09/18 06:09:18;;;;;;;0.50;0.40;;;20.40;99.90;;;;;;5043899;28;20456;-81
2023/09/18 06:11:46;;;;;;;0.50;0.40;;;20.50;99.90;;;;;;5043471;28;20825;-82
2023/09/18 06:14:12;;;;;;;0.50;0.30;;;20.40;99.90;;;;;;5054474;28;20928;-80
2023/09/18 06:16:39;;;;;;;0.50;0.30;;;20.50;99.90;;;;;;5047161;28;20442;-81
2023/09/18 06:19:06;;;;;;;0.50;0.40;;;20.50;99.90;;;;;;5035085;28;20444;-80
2023/09/18 06:21:33;;;;;;;0.50;0.30;;;20.50;99.90;;;;;;5035015;28;20512;-80
2023/09/18 06:23:59;;;;;;;0.50;0.30;;;20.50;99.90;;;;;;5053885;28;20444;-81
2023/09/18 06:26:27;;;;;;;0.50;0.40;;;20.50;99.90;;;;;;5046166;28;20452;-81
2023/09/18 06:28:55;;;;;;;0.50;0.30;;;20.50;99.90;;;;;;5047021;28;20441;-80
2023/09/18 06:31:23;;;;;;;0.50;0.40;;;20.50;99.90;;;;;;5055283;28;20469;-81
2023/09/18 06:33:50;;;;;;;0.50;0.30;;;20.50;99.90;;;;;;5054667;28;20491;-81
2023/09/18 06:36:17;;;;;;;0.50;0.40;;;20.50;99.90;;;;;;5049812;28;20445;-80
2023/09/18 06:38:43;;;;;;;2.10;1.70;;;20.50;99.90;;;;;;5043256;28;20446;-80
2023/09/18 06:41:10;;;;;;;1.57;1.27;;;20.50;99.90;;;;;;5043141;28;20485;-80
2023/09/18 06:43:37;;;;;;;0.50;0.30;;;20.50;99.90;;;;;;5042854;28;20452;-81
2023/09/18 06:46:07;;;;;;;0.50;0.30;;;20.50;99.90;;;;;;5046357;28;20438;-81
2023/09/18 06:48:34;;;;;;;0.50;0.30;;;20.60;99.90;;;;;;5046062;28;20462;-79
2023/09/18 06:51:01;;;;;;;0.50;0.40;;;20.60;99.90;;;;;;5055769;28;20539;-79
2023/09/18 06:53:28;;;;;;;2.43;2.30;;;20.60;99.90;;;;;;5042206;28;20438;-81
2023/09/18 06:55:56;;;;;;;3.20;0.90;;;20.60;99.90;;;;;;5044791;28;20438;-81
2023/09/18 06:58:22;;;;;;;0.60;0.50;;;20.70;99.90;;;;;;5049679;28;20439;-82
2023/09/18 07:00:51;;;;;;;0.50;0.30;;;20.70;99.90;;;;;;5051260;28;20834;-81
2023/09/18 07:03:19;;;;;;;0.70;0.43;;;20.80;99.90;;;;;;5035028;28;20445;-81
2023/09/18 07:05:46;;;;;;;0.50;0.30;;;20.90;99.90;;;;;;5051524;28;20442;-80
2023/09/18 07:08:13;;;;;;;0.50;0.40;;;20.90;99.90;;;;;;5055044;28;20851;-81
2023/09/18 07:10:40;;;;;;;0.70;0.60;;;20.90;99.90;;;;;;5055303;28;20457;-81
2023/09/18 07:13:06;;;;;;;0.50;0.30;;;20.90;99.90;;;;;;5051487;28;20433;-81
2023/09/18 07:15:33;;;;;;;0.50;0.40;;;21.00;99.90;;;;;;5035040;28;20450;-81
2023/09/18 07:18:00;;;;;;;0.50;0.40;;;21.10;99.90;;;;;;5045352;28;20828;-81
2023/09/18 07:20:28;;;;;;;0.50;0.40;;;21.10;99.90;;;;;;5048996;28;20474;-82
2023/09/18 07:22:55;;;;;;;0.50;0.33;;;21.10;99.90;;;;;;5051376;28;20513;-82
2023/09/18 07:25:22;;;;;;;0.50;0.40;;;21.20;99.90;;;;;;5043211;28;20538;-77
2023/09/18 07:27:49;;;;;;;0.50;0.33;;;21.20;99.90;;;;;;5035163;28;20442;-80
2023/09/18 07:30:17;;;;;;;0.50;0.30;;;21.20;99.90;;;;;;5047637;28;20439;-78
2023/09/18 07:32:44;;;;;;;0.50;0.30;;;21.30;99.90;;;;;;5046473;28;20778;-82
2023/09/18 07:35:11;;;;;;;0.70;0.70;;;21.30;99.90;;;;;;5037516;28;20444;-81
2023/09/18 07:37:39;;;;;;;0.50;0.30;;;21.50;99.90;;;;;;5055561;28;20433;-80
2023/09/18 07:40:08;;;;;;;0.50;0.30;;;21.60;99.90;;;;;;5047114;28;20439;-81
2023/09/18 07:42:35;;;;;;;0.97;0.60;;;21.50;99.90;;;;;;5044790;28;20464;-81
2023/09/18 07:45:01;;;;;;;0.50;0.30;;;21.50;99.90;;;;;;5057670;28;20438;-81
2023/09/18 07:47:28;;;;;;;0.50;0.30;;;21.50;99.90;;;;;;5044426;28;20528;-80
2023/09/18 07:49:55;;;;;;;0.50;0.30;;;21.50;99.90;;;;;;5054523;28;20487;-80
2023/09/18 07:52:22;;;;;;;0.50;0.30;;;21.50;99.90;;;;;;5042687;28;20465;-80
2023/09/18 07:54:50;;;;;;;0.53;0.53;;;21.40;99.90;;;;;;5041156;28;20446;-80
2023/09/18 07:57:18;;;;;;;0.57;0.47;;;21.40;99.90;;;;;;5046483;28;20437;-80
2023/09/18 07:59:46;;;;;;;0.50;0.40;;;21.40;99.90;;;;;;5046480;28;20466;-80
2023/09/18 08:02:13;;;;;;;0.60;0.60;;;21.40;99.90;;;;;;5049753;28;20842;-81
2023/09/18 08:04:40;;;;;;;0.50;0.40;;;21.40;99.90;;;;;;5050831;28;20919;-79
2023/09/18 08:07:07;;;;;;;0.50;0.30;;;21.40;99.90;;;;;;5048548;28;20441;-81
2023/09/18 08:09:36;;;;;;;1.37;0.60;;;21.60;99.90;;;;;;5043722;28;20439;-80
2023/09/18 08:12:04;;;;;;;0.50;0.30;;;21.70;99.90;;;;;;5045923;28;20454;-80
2023/09/18 08:14:31;;;;;;;0.83;0.83;;;21.60;99.90;;;;;;5045410;28;20439;-80
2023/09/18 08:16:58;;;;;;;0.73;0.73;;;21.50;99.90;;;;;;5055780;28;20874;-81
2023/09/18 08:19:26;;;;;;;0.50;0.33;;;21.50;99.90;;;;;;5049434;28;20451;-80
2023/09/18 08:21:55;;;;;;;0.50;0.30;;;21.60;99.90;;;;;;5056492;28;20485;-79
2023/09/18 08:24:22;;;;;;;0.83;0.60;;;21.50;99.90;;;;;;5041618;28;20434;-79
2023/09/18 08:26:49;;;;;;;0.50;0.30;;;21.60;99.90;;;;;;5048738;28;20445;-80
2023/09/18 08:29:18;;;;;;;0.50;0.30;;;21.60;99.90;;;;;;5045851;28;20428;-80
2023/09/18 08:31:45;;;;;;;0.50;0.30;;;21.30;99.90;;;;;;5045303;28;20466;-80
2023/09/18 08:34:12;;;;;;;0.50;0.40;;;21.40;99.90;;;;;;5048526;28;20449;-79
2023/09/18 08:36:39;;;;;;;0.50;0.40;;;21.30;99.90;;;;;;5050704;28;20437;-81
2023/09/18 08:39:06;;;;;;;0.50;0.40;;;21.40;99.90;;;;;;5045601;28;20432;-80
2023/09/18 08:41:34;;;;;;;0.50;0.30;;;21.50;99.90;;;;;;5042838;28;20476;-79
2023/09/18 08:44:03;;;;;;;0.60;0.53;;;21.60;99.90;;;;;;5047814;28;20812;-81
2023/09/18 08:46:34;;;;;;;0.50;0.30;;;21.60;99.90;;;;;;5037158;28;20447;-80
2023/09/18 08:49:02;;;;;;;0.50;0.30;;;21.60;99.90;;;;;;5037784;28;20435;-80
2023/09/18 08:51:29;;;;;;;0.50;0.40;;;21.60;99.90;;;;;;5053372;28;20536;-79
2023/09/18 08:53:57;;;;;;;0.93;0.90;;;21.70;99.90;;;;;;5045505;28;20503;-79
2023/09/18 08:56:25;;;;;;;1.00;0.83;;;21.70;99.90;;;;;;5045528;28;20535;-77
2023/09/18 08:58:53;;;;;;;0.50;0.30;;;21.70;99.90;;;;;;5036392;28;20452;-81
2023/09/18 09:01:20;;;;;;;0.50;0.30;;;21.80;99.90;;;;;;5036246;28;20755;-78
2023/09/18 09:03:49;;;;;;;0.70;0.40;;;21.80;99.90;;;;;;5045806;28;20465;-79
2023/09/18 09:06:16;;;;;;;0.50;0.30;;;22.00;99.90;;;;;;5049090;28;20462;-81
2023/09/18 09:08:43;;;;;;;0.50;0.37;;;22.00;99.90;;;;;;5050455;28;20853;-80
2023/09/18 09:11:10;;;;;;;1.67;1.57;;;22.00;99.90;;;;;;5037027;28;20506;-81
2023/09/18 09:13:37;;;;;;;0.50;0.50;;;21.90;99.90;;;;;;5050596;28;20435;-80
2023/09/18 09:16:04;;;;;;;0.50;0.30;;;22.00;99.90;;;;;;5039744;28;20443;-81
2023/09/18 09:18:33;;;;;;;0.50;0.40;;;22.00;99.90;;;;;;5043673;28;20442;-81
2023/09/18 09:21:04;;;;;;;0.50;0.40;;;22.30;99.90;;;;;;5036555;28;20522;-80
2023/09/18 09:23:48;;;;;;;0.50;0.30;;;22.90;99.90;;;;;;5049484;28;20464;-80
2023/09/18 09:26:17;;;;;;;1.90;1.43;;;23.30;99.90;;;;;;5037409;28;20439;-80
2023/09/18 09:28:45;;;;;;;0.70;0.70;;;23.60;99.90;;;;;;5051572;28;20528;-81
2023/09/18 09:31:13;;;;;;;0.50;0.30;;;23.70;99.90;;;;;;5054027;28;20573;-78
2023/09/18 09:33:52;;;;;;;0.50;0.33;;;23.50;99.90;;;;;;5036169;28;20451;-80
2023/09/18 09:36:20;;;;;;;0.50;0.30;;;23.40;99.90;;;;;;5046659;28;20922;-79
2023/09/18 09:38:47;;;;;;;0.50;0.30;;;23.30;99.90;;;;;;5055970;28;20815;-79
2023/09/18 09:41:15;;;;;;;0.50;0.30;;;23.50;99.90;;;;;;5055215;28;20478;-82
2023/09/18 09:43:43;;;;;;;0.50;0.30;;;23.60;99.90;;;;;;5049564;28;20955;-80
2023/09/18 09:46:16;;;;;;;0.97;0.97;;;23.70;99.90;;;;;;5036696;28;20512;-81
2023/09/18 09:49:01;;;;;;;0.50;0.40;;;24.00;99.90;;;;;;5055501;28;20436;-81
2023/09/18 09:51:30;;;;;;;0.50;0.40;;;24.10;99.90;;;;;;5039470;28;20865;-81
2023/09/18 09:53:58;;;;;;;0.50;0.30;;;23.80;99.90;;;;;;5038863;28;20438;-81
2023/09/18 09:56:43;;;;;;;0.73;0.73;;;23.60;99.90;;;;;;5030727;28;20436;-77
2023/09/18 09:59:11;;;;;;;0.50;0.37;;;23.40;99.90;;;;;;5053941;28;20430;-80
2023/09/18 10:01:40;;;;;;;0.50;0.30;;;23.10;99.90;;;;;;5048249;28;20483;-79
2023/09/18 10:04:10;;;;;;;0.50;0.50;;;23.30;99.90;;;;;;5053809;28;20435;-80
2023/09/18 10:06:40;;;;;;;0.60;0.60;;;23.90;99.90;;;;;;5048801;28;20502;-79
2023/09/18 10:09:10;;;;;;;0.50;0.40;;;24.00;99.90;;;;;;5055003;28;20437;-80
2023/09/18 10:11:41;;;;;;;0.50;0.40;;;24.30;99.90;;;;;;5041907;28;20457;-79
2023/09/18 10:14:13;;;;;;;0.50;0.30;;;24.40;99.90;;;;;;5035124;28;20504;-80
2023/09/18 10:16:44;;;;;;;0.50;0.30;;;24.90;99.90;;;;;;5035115;28;20441;-81
2023/09/18 10:19:21;;;;;;;0.70;0.67;;;25.40;99.90;;;;;;5036819;28;20449;-80
2023/09/18 10:21:55;;;;;;;0.60;0.40;;;25.70;99.90;;;;;;5047063;28;20475;-81
2023/09/18 10:24:25;;;;;;;0.60;0.50;;;25.30;99.90;;;;;;5054860;28;20438;-77
2023/09/18 10:26:56;;;;;;;0.50;0.40;;;25.10;99.90;;;;;;5048273;28;20548;-82
2023/09/18 10:29:24;;;;;;;0.67;0.57;;;25.60;99.90;;;;;;5055205;28;20500;-81
2023/09/18 10:31:52;;;;;;;0.50;0.50;;;25.90;99.90;;;;;;5055470;28;20459;-81
2023/09/18 10:34:19;;;;;;;0.50;0.33;;;26.20;99.90;;;;;;5036624;28;20449;-82
2023/09/18 10:36:49;;;;;;;0.50;0.30;;;26.60;99.90;;;;;;5034983;28;20528;-82
2023/09/18 10:39:19;;;;;;;0.50;0.30;;;27.40;99.90;;;;;;5043189;28;20447;-82
2023/09/18 10:41:47;;;;;;;0.50;0.30;;;28.80;99.90;;;;;;5048810;28;20473;-83
2023/09/18 10:44:15;;;;;;;0.50;0.30;;;29.30;99.90;;;;;;5052689;28;20448;-82
2023/09/18 10:46:42;;;;;;;0.50;0.30;;;30.20;99.90;;;;;;5043602;28;20922;-82
2023/09/18 10:49:09;;;;;;;0.50;0.37;;;30.20;99.90;;;;;;5032964;28;20790;-82
2023/09/18 10:51:41;;;;;;;0.73;0.50;;;30.70;99.90;;;;;;5038485;28;20461;-81
2023/09/18 10:54:16;;;;;;;0.50;0.30;;;31.00;97.40;;;;;;5048445;28;20431;-83
2023/09/18 10:56:43;;;;;;;0.50;0.50;;;30.40;95.90;;;;;;5052615;28;20421;-83
2023/09/18 10:59:10;;;;;;;0.77;0.40;;;29.10;96.10;;;;;;5046625;28;20794;-83
2023/09/18 11:01:37;;;;;;;0.50;0.40;;;28.60;97.90;;;;;;5051172;28;20531;-80
2023/09/18 11:04:08;;;;;;;0.50;0.30;;;28.30;99.90;;;;;;5051474;28;20433;-83
2023/09/18 11:07:03;;;;;;;0.50;0.30;;;27.90;99.90;;;;;;5042370;28;20438;-81
2023/09/18 11:09:33;;;;;;;0.50;0.30;;;27.90;99.90;;;;;;5041767;28;20444;-81
2023/09/18 11:14:43;;;;;;;0.50;0.30;;;28.50;99.90;;;;;;5104697;22;20497;-80
2023/09/18 11:17:37;;;;;;;0.80;0.50;;;28.40;99.90;;;;;;5044231;28;20441;-80
2023/09/18 11:20:12;;;;;;;0.50;0.40;;;28.40;99.90;;;;;;5050978;28;21114;-80
2023/09/18 11:22:40;;;;;;;0.50;0.30;;;28.20;99.90;;;;;;5052201;28;20847;-80
2023/09/18 11:25:31;;;;;;;4.43;0.90;;;28.20;99.90;;;;;;5074540;28;20969;-81
2023/09/18 11:27:58;;;;;;;2.30;1.13;;;28.20;99.90;;;;;;5072955;28;20443;-82
2023/09/18 11:30:26;;;;;;;0.50;0.40;;;28.20;99.90;;;;;;5068906;28;20918;-82
2023/09/18 11:32:53;;;;;;;0.60;0.50;;;28.20;99.90;;;;;;5060434;28;20453;-81
2023/09/18 11:35:20;;;;;;;0.50;0.40;;;27.70;99.90;;;;;;5059602;28;20990;-82
2023/09/18 11:37:47;;;;;;;0.80;0.70;;;27.30;99.90;;;;;;5066571;28;20454;-80
2023/09/18 11:40:34;;;;;;;0.57;0.57;;;27.20;99.90;;;;;;5064030;28;20908;-81
2023/09/18 11:43:23;;;;;;;0.80;0.80;;;28.20;99.90;;;;;;5060004;28;20998;-81
2023/09/18 11:45:51;;;;;;;0.50;0.30;;;28.80;99.20;;;;;;5073251;28;20447;-82
2023/09/18 11:48:19;;;;;;;0.50;0.40;;;27.70;99.90;;;;;;5072875;28;20452;-80
2023/09/18 11:50:46;;;;;;;0.50;0.30;;;27.20;99.90;;;;;;5080106;28;20497;-80
2023/09/18 11:53:13;;;;;;;0.50;0.30;;;26.80;99.90;;;;;;5082160;28;20908;-80
2023/09/18 11:55:42;;;;;;;0.50;0.40;;;26.20;99.90;;;;;;5073670;28;20757;-80
2023/09/18 11:58:09;;;;;;;0.50;0.30;;;26.60;99.90;;;;;;5066824;28;20449;-80
2023/09/18 12:00:45;;;;;;;1.80;0.63;;;26.60;99.90;;;;;;5059575;28;20440;-81
2023/09/18 12:03:24;;;;;;;0.70;0.40;;;26.00;99.90;;;;;;5066043;28;20479;-79
2023/09/18 12:05:53;;;;;;;0.50;0.30;;;25.90;99.90;;;;;;5078192;28;20954;-81
2023/09/18 12:08:20;;;;;;;0.87;0.70;;;26.90;99.90;;;;;;5078337;28;20799;-81
2023/09/18 12:10:51;;;;;;;0.50;0.40;;;27.60;99.90;;;;;;5078604;28;20445;-79
2023/09/18 12:13:18;;;;;;;0.73;0.73;;;28.00;99.90;;;;;;5068962;28;20471;-80
2023/09/18 12:15:45;;;;;;;0.50;0.50;;;28.00;99.90;;;;;;5062178;28;20448;-80
2023/09/18 12:18:13;;;;;;;1.23;1.13;;;27.90;99.90;;;;;;5070315;28;20940;-81
2023/09/18 12:20:46;;;;;;;0.50;0.30;;;28.20;99.90;;;;;;5061115;28;20444;-81
2023/09/18 12:23:13;;;;;;;0.50;0.30;;;28.40;99.90;;;;;;5076708;28;20518;-79
2023/09/18 12:25:41;;;;;;;0.50;0.43;;;28.40;99.90;;;;;;5076771;28;20450;-81
2023/09/18 12:28:09;;;;;;;0.83;0.83;;;28.20;99.90;;;;;;5071220;28;20482;-80
2023/09/18 12:30:36;;;;;;;0.60;0.40;;;28.00;99.90;;;;;;5074349;28;20531;-78
2023/09/18 12:33:04;;;;;;;5.40;1.17;;;27.30;99.90;;;;;;5075900;28;20492;-80
2023/09/18 12:35:31;;;;;;;0.50;0.40;;;27.50;99.90;;;;;;5074653;28;21012;-80
2023/09/18 12:37:59;;;;;;;0.57;0.50;;;27.80;99.90;;;;;;5065046;28;20936;-80
2023/09/18 12:40:28;;;;;;;0.50;0.30;;;27.40;99.90;;;;;;5059890;28;21025;-80
2023/09/18 12:42:56;;;;;;;0.50;0.33;;;27.60;99.90;;;;;;5057287;28;20479;-79
2023/09/18 12:45:25;;;;;;;0.50;0.40;;;27.30;99.90;;;;;;5065908;28;20459;-80
2023/09/18 12:47:52;;;;;;;0.60;0.40;;;27.40;99.90;;;;;;5064343;28;20449;-80
2023/09/18 12:50:19;;;;;;;0.87;0.87;;;27.40;99.90;;;;;;5065017;28;20437;-79
2023/09/18 12:52:45;;;;;;;0.50;0.40;;;27.90;99.90;;;;;;5071894;28;20959;-81
2023/09/18 12:55:25;;;;;;;0.50;0.40;;;28.10;98.80;;;;;;5055626;28;20444;-80